sensor_id;sensor_type;location;lat;lon;timestamp;P1;durP1;ratioP1;P2;durP2;ratioP2
76801;SDS011;66403;50.832;10.950;2023-05-16T00:01:05;6.90;;;4.30;;
76801;SDS011;66403;50.832;10.950;2023-05-16T00:06:06;6.03;;;4.60;;
76801;SDS011;66403;50.832;10.950;2023-05-16T00:11:07;5.28;;;4.35;;
76801;SDS011;66403;50.832;10.950;2023-05-16T00:16:07;6.38;;;4.55;;
76801;SDS011;66403;50.832;10.950;2023-05-16T00:21:08;5.30;;;4.53;;
76801;SDS011;66403;50.832;10.950;2023-05-16T00:26:08;5.57;;;4.88;;
76801;SDS011;66403;50.832;10.950;2023-05-16T00:31:10;6.97;;;4.43;;
76801;SDS011;66403;50.832;10.950;2023-05-16T00:36:10;7.70;;;4.43;;
76801;SDS011;66403;50.832;10.950;2023-05-16T00:41:12;6.95;;;4.55;;
76801;SDS011;66403;50.832;10.950;2023-05-16T00:46:12;5.90;;;4.55;;
76801;SDS011;66403;50.832;10.950;2023-05-16T00:51:13;7.60;;;5.10;;
76801;SDS011;66403;50.832;10.950;2023-05-16T00:56:13;6.50;;;5.22;;
76801;SDS011;66403;50.832;10.950;2023-05-16T01:01:14;6.32;;;4.80;;
76801;SDS011;66403;50.832;10.950;2023-05-16T01:06:14;6.90;;;5.65;;
76801;SDS011;66403;50.832;10.950;2023-05-16T01:11:29;8.23;;;4.93;;
76801;SDS011;66403;50.832;10.950;2023-05-16T01:27:16;6.18;;;4.75;;
76801;SDS011;66403;50.832;10.950;2023-05-16T01:32:16;6.30;;;5.00;;
76801;SDS011;66403;50.832;10.950;2023-05-16T01:37:20;8.75;;;5.57;;
76801;SDS011;66403;50.832;10.950;2023-05-16T01:42:36;5.93;;;4.35;;
76801;SDS011;66403;50.832;10.950;2023-05-16T01:47:39;8.93;;;6.07;;
76801;SDS011;66403;50.832;10.950;2023-05-16T01:57:49;11.13;;;7.38;;
76801;SDS011;66403;50.832;10.950;2023-05-16T02:02:51;7.07;;;5.88;;
76801;SDS011;66403;50.832;10.950;2023-05-16T02:07:51;11.30;;;7.60;;
76801;SDS011;66403;50.832;10.950;2023-05-16T02:12:52;11.73;;;7.25;;
76801;SDS011;66403;50.832;10.950;2023-05-16T02:17:53;12.80;;;8.00;;
76801;SDS011;66403;50.832;10.950;2023-05-16T02:22:53;12.23;;;7.70;;
76801;SDS011;66403;50.832;10.950;2023-05-16T02:27:54;12.93;;;9.20;;
76801;SDS011;66403;50.832;10.950;2023-05-16T02:32:55;16.67;;;8.70;;
76801;SDS011;66403;50.832;10.950;2023-05-16T02:37:56;13.35;;;9.73;;
76801;SDS011;66403;50.832;10.950;2023-05-16T02:42:58;17.52;;;9.75;;
76801;SDS011;66403;50.832;10.950;2023-05-16T02:47:58;15.27;;;9.65;;
76801;SDS011;66403;50.832;10.950;2023-05-16T02:52:59;15.38;;;8.40;;
76801;SDS011;66403;50.832;10.950;2023-05-16T02:58:01;14.68;;;9.55;;
76801;SDS011;66403;50.832;10.950;2023-05-16T03:03:02;11.27;;;8.70;;
76801;SDS011;66403;50.832;10.950;2023-05-16T03:08:03;11.52;;;8.65;;
76801;SDS011;66403;50.832;10.950;2023-05-16T03:13:04;12.80;;;9.20;;
76801;SDS011;66403;50.832;10.950;2023-05-16T03:18:04;11.85;;;8.20;;
76801;SDS011;66403;50.832;10.950;2023-05-16T03:23:04;12.85;;;8.68;;
76801;SDS011;66403;50.832;10.950;2023-05-16T03:28:09;15.70;;;9.93;;
76801;SDS011;66403;50.832;10.950;2023-05-16T03:33:10;13.57;;;9.10;;
76801;SDS011;66403;50.832;10.950;2023-05-16T03:38:10;14.77;;;8.23;;
76801;SDS011;66403;50.832;10.950;2023-05-16T03:43:11;17.73;;;10.43;;
76801;SDS011;66403;50.832;10.950;2023-05-16T03:48:11;13.48;;;9.30;;
76801;SDS011;66403;50.832;10.950;2023-05-16T03:53:12;14.60;;;9.07;;
76801;SDS011;66403;50.832;10.950;2023-05-16T03:58:12;19.55;;;10.57;;
76801;SDS011;66403;50.832;10.950;2023-05-16T04:03:13;16.45;;;10.43;;
76801;SDS011;66403;50.832;10.950;2023-05-16T04:08:13;20.13;;;10.77;;
76801;SDS011;66403;50.832;10.950;2023-05-16T04:13:14;18.42;;;10.07;;
76801;SDS011;66403;50.832;10.950;2023-05-16T04:18:15;15.20;;;9.50;;
76801;SDS011;66403;50.832;10.950;2023-05-16T04:23:15;11.65;;;8.63;;
76801;SDS011;66403;50.832;10.950;2023-05-16T04:28:16;14.57;;;8.60;;
76801;SDS011;66403;50.832;10.950;2023-05-16T04:33:17;11.63;;;7.43;;
76801;SDS011;66403;50.832;10.950;2023-05-16T04:38:17;12.73;;;7.68;;
76801;SDS011;66403;50.832;10.950;2023-05-16T04:43:18;11.93;;;7.22;;
76801;SDS011;66403;50.832;10.950;2023-05-16T04:48:19;13.20;;;8.75;;
76801;SDS011;66403;50.832;10.950;2023-05-16T04:53:19;12.73;;;7.75;;
76801;SDS011;66403;50.832;10.950;2023-05-16T04:58:20;13.70;;;9.30;;
76801;SDS011;66403;50.832;10.950;2023-05-16T05:03:23;11.82;;;7.30;;
76801;SDS011;66403;50.832;10.950;2023-05-16T05:08:23;11.73;;;7.32;;
76801;SDS011;66403;50.832;10.950;2023-05-16T05:13:23;10.95;;;7.32;;
76801;SDS011;66403;50.832;10.950;2023-05-16T05:18:24;10.63;;;7.15;;
76801;SDS011;66403;50.832;10.950;2023-05-16T05:23:24;11.48;;;7.20;;
76801;SDS011;66403;50.832;10.950;2023-05-16T05:28:25;10.05;;;6.82;;
76801;SDS011;66403;50.832;10.950;2023-05-16T05:33:26;9.18;;;5.97;;
76801;SDS011;66403;50.832;10.950;2023-05-16T05:38:29;10.77;;;6.10;;
76801;SDS011;66403;50.832;10.950;2023-05-16T05:43:29;9.73;;;5.88;;
76801;SDS011;66403;50.832;10.950;2023-05-16T05:48:30;13.25;;;7.82;;
76801;SDS011;66403;50.832;10.950;2023-05-16T05:53:31;10.65;;;6.50;;
76801;SDS011;66403;50.832;10.950;2023-05-16T05:58:31;16.05;;;8.35;;
76801;SDS011;66403;50.832;10.950;2023-05-16T06:03:32;9.13;;;6.47;;
76801;SDS011;66403;50.832;10.950;2023-05-16T06:08:32;8.93;;;5.25;;
76801;SDS011;66403;50.832;10.950;2023-05-16T06:13:33;10.60;;;5.75;;
76801;SDS011;66403;50.832;10.950;2023-05-16T06:18:33;7.97;;;5.70;;
76801;SDS011;66403;50.832;10.950;2023-05-16T06:23:34;12.05;;;7.20;;
76801;SDS011;66403;50.832;10.950;2023-05-16T06:28:34;11.70;;;6.00;;
76801;SDS011;66403;50.832;10.950;2023-05-16T06:33:35;7.88;;;5.07;;
76801;SDS011;66403;50.832;10.950;2023-05-16T06:38:35;8.90;;;4.85;;
76801;SDS011;66403;50.832;10.950;2023-05-16T06:43:36;9.88;;;5.35;;
76801;SDS011;66403;50.832;10.950;2023-05-16T06:48:36;8.13;;;5.43;;
76801;SDS011;66403;50.832;10.950;2023-05-16T06:53:37;8.43;;;5.30;;
76801;SDS011;66403;50.832;10.950;2023-05-16T06:58:37;8.23;;;5.03;;
76801;SDS011;66403;50.832;10.950;2023-05-16T07:03:38;8.50;;;5.07;;
76801;SDS011;66403;50.832;10.950;2023-05-16T07:08:38;6.90;;;4.10;;
76801;SDS011;66403;50.832;10.950;2023-05-16T07:13:39;9.57;;;6.35;;
76801;SDS011;66403;50.832;10.950;2023-05-16T07:18:39;9.43;;;4.95;;
76801;SDS011;66403;50.832;10.950;2023-05-16T07:23:40;5.40;;;2.83;;
76801;SDS011;66403;50.832;10.950;2023-05-16T07:28:40;3.88;;;2.22;;
76801;SDS011;66403;50.832;10.950;2023-05-16T07:33:42;4.97;;;2.83;;
76801;SDS011;66403;50.832;10.950;2023-05-16T07:38:43;3.97;;;2.50;;
76801;SDS011;66403;50.832;10.950;2023-05-16T07:43:43;5.53;;;3.30;;
76801;SDS011;66403;50.832;10.950;2023-05-16T07:48:44;5.95;;;4.00;;
76801;SDS011;66403;50.832;10.950;2023-05-16T07:53:45;7.13;;;4.55;;
76801;SDS011;66403;50.832;10.950;2023-05-16T07:58:46;5.03;;;3.40;;
76801;SDS011;66403;50.832;10.950;2023-05-16T08:03:47;3.88;;;2.72;;
76801;SDS011;66403;50.832;10.950;2023-05-16T08:08:48;3.80;;;2.40;;
76801;SDS011;66403;50.832;10.950;2023-05-16T08:13:48;2.28;;;1.50;;
76801;SDS011;66403;50.832;10.950;2023-05-16T08:18:49;2.35;;;1.67;;
76801;SDS011;66403;50.832;10.950;2023-05-16T08:23:49;2.08;;;1.65;;
76801;SDS011;66403;50.832;10.950;2023-05-16T08:28:50;1.50;;;1.38;;
76801;SDS011;66403;50.832;10.950;2023-05-16T08:33:50;1.95;;;1.48;;
76801;SDS011;66403;50.832;10.950;2023-05-16T08:38:51;2.43;;;1.47;;
76801;SDS011;66403;50.832;10.950;2023-05-16T08:43:51;9.20;;;5.73;;
76801;SDS011;66403;50.832;10.950;2023-05-16T08:48:52;3.08;;;1.80;;
76801;SDS011;66403;50.832;10.950;2023-05-16T08:53:58;2.38;;;1.40;;
76801;SDS011;66403;50.832;10.950;2023-05-16T08:59:02;2.03;;;1.10;;
76801;SDS011;66403;50.832;10.950;2023-05-16T09:04:05;2.58;;;1.10;;
76801;SDS011;66403;50.832;10.950;2023-05-16T09:09:06;1.77;;;1.13;;
76801;SDS011;66403;50.832;10.950;2023-05-16T09:14:09;2.30;;;1.13;;
76801;SDS011;66403;50.832;10.950;2023-05-16T09:19:11;2.10;;;0.87;;
76801;SDS011;66403;50.832;10.950;2023-05-16T09:24:12;3.63;;;1.38;;
76801;SDS011;66403;50.832;10.950;2023-05-16T09:29:12;3.42;;;1.33;;
76801;SDS011;66403;50.832;10.950;2023-05-16T09:34:13;2.22;;;1.30;;
76801;SDS011;66403;50.832;10.950;2023-05-16T09:39:14;2.35;;;1.75;;
76801;SDS011;66403;50.832;10.950;2023-05-16T09:44:16;2.03;;;1.23;;
76801;SDS011;66403;50.832;10.950;2023-05-16T09:49:17;1.40;;;1.10;;
76801;SDS011;66403;50.832;10.950;2023-05-16T09:54:28;2.33;;;1.42;;
76801;SDS011;66403;50.832;10.950;2023-05-16T09:59:34;3.03;;;1.33;;
76801;SDS011;66403;50.832;10.950;2023-05-16T10:04:35;2.55;;;1.20;;
76801;SDS011;66403;50.832;10.950;2023-05-16T10:09:35;3.63;;;2.15;;
76801;SDS011;66403;50.832;10.950;2023-05-16T10:14:38;2.25;;;1.80;;
76801;SDS011;66403;50.832;10.950;2023-05-16T10:19:40;4.97;;;1.85;;
76801;SDS011;66403;50.832;10.950;2023-05-16T10:24:49;3.92;;;1.83;;
76801;SDS011;66403;50.832;10.950;2023-05-16T10:29:52;8.25;;;4.20;;
76801;SDS011;66403;50.832;10.950;2023-05-16T10:34:53;5.43;;;2.05;;
76801;SDS011;66403;50.832;10.950;2023-05-16T10:39:55;4.40;;;2.13;;
76801;SDS011;66403;50.832;10.950;2023-05-16T10:45:07;5.72;;;2.15;;
76801;SDS011;66403;50.832;10.950;2023-05-16T10:50:13;8.48;;;3.22;;
76801;SDS011;66403;50.832;10.950;2023-05-16T10:55:29;3.25;;;2.05;;
76801;SDS011;66403;50.832;10.950;2023-05-16T11:00:30;6.18;;;2.78;;
76801;SDS011;66403;50.832;10.950;2023-05-16T11:05:30;10.18;;;5.63;;
76801;SDS011;66403;50.832;10.950;2023-05-16T11:10:31;5.60;;;2.78;;
76801;SDS011;66403;50.832;10.950;2023-05-16T11:15:32;7.13;;;5.28;;
76801;SDS011;66403;50.832;10.950;2023-05-16T11:20:34;5.95;;;2.83;;
76801;SDS011;66403;50.832;10.950;2023-05-16T11:25:37;3.17;;;1.60;;
76801;SDS011;66403;50.832;10.950;2023-05-16T11:30:43;3.13;;;1.67;;
76801;SDS011;66403;50.832;10.950;2023-05-16T11:41:05;1.83;;;1.48;;
76801;SDS011;66403;50.832;10.950;2023-05-16T11:51:07;7.95;;;1.30;;
76801;SDS011;66403;50.832;10.950;2023-05-16T11:56:08;1.80;;;1.17;;
76801;SDS011;66403;50.832;10.950;2023-05-16T12:01:09;4.75;;;1.90;;
76801;SDS011;66403;50.832;10.950;2023-05-16T12:06:09;3.25;;;1.20;;
76801;SDS011;66403;50.832;10.950;2023-05-16T12:11:10;4.43;;;1.25;;
76801;SDS011;66403;50.832;10.950;2023-05-16T12:16:11;6.72;;;1.40;;
76801;SDS011;66403;50.832;10.950;2023-05-16T12:21:11;5.15;;;1.48;;
76801;SDS011;66403;50.832;10.950;2023-05-16T12:26:12;4.10;;;1.20;;
76801;SDS011;66403;50.832;10.950;2023-05-16T12:31:19;3.25;;;1.00;;
76801;SDS011;66403;50.832;10.950;2023-05-16T12:36:22;4.80;;;1.20;;
76801;SDS011;66403;50.832;10.950;2023-05-16T12:41:24;1.60;;;0.85;;
76801;SDS011;66403;50.832;10.950;2023-05-16T12:46:24;3.43;;;0.93;;
76801;SDS011;66403;50.832;10.950;2023-05-16T12:51:26;4.88;;;1.48;;
76801;SDS011;66403;50.832;10.950;2023-05-16T12:56:28;5.20;;;1.25;;
76801;SDS011;66403;50.832;10.950;2023-05-16T13:01:29;5.07;;;2.13;;
76801;SDS011;66403;50.832;10.950;2023-05-16T13:06:29;5.47;;;2.97;;
76801;SDS011;66403;50.832;10.950;2023-05-16T13:11:30;1.80;;;0.68;;
76801;SDS011;66403;50.832;10.950;2023-05-16T13:16:30;3.23;;;0.97;;
76801;SDS011;66403;50.832;10.950;2023-05-16T13:21:31;4.38;;;0.85;;
76801;SDS011;66403;50.832;10.950;2023-05-16T13:26:31;3.57;;;1.53;;
76801;SDS011;66403;50.832;10.950;2023-05-16T13:31:32;4.27;;;1.90;;
76801;SDS011;66403;50.832;10.950;2023-05-16T13:36:33;3.73;;;0.83;;
76801;SDS011;66403;50.832;10.950;2023-05-16T13:41:33;2.90;;;1.10;;
76801;SDS011;66403;50.832;10.950;2023-05-16T13:46:37;3.55;;;1.33;;
76801;SDS011;66403;50.832;10.950;2023-05-16T13:51:37;3.53;;;0.97;;
76801;SDS011;66403;50.832;10.950;2023-05-16T13:56:38;1.95;;;0.90;;
76801;SDS011;66403;50.832;10.950;2023-05-16T14:01:38;2.25;;;1.20;;
76801;SDS011;66403;50.832;10.950;2023-05-16T14:06:39;2.73;;;0.87;;
76801;SDS011;66403;50.832;10.950;2023-05-16T14:11:39;2.53;;;0.63;;
76801;SDS011;66403;50.832;10.950;2023-05-16T14:16:40;5.15;;;0.90;;
76801;SDS011;66403;50.832;10.950;2023-05-16T14:21:44;4.68;;;1.00;;
76801;SDS011;66403;50.832;10.950;2023-05-16T14:26:45;3.67;;;0.85;;
76801;SDS011;66403;50.832;10.950;2023-05-16T14:31:45;2.53;;;0.93;;
76801;SDS011;66403;50.832;10.950;2023-05-16T14:36:46;5.00;;;0.93;;
76801;SDS011;66403;50.832;10.950;2023-05-16T14:41:46;12.60;;;8.73;;
76801;SDS011;66403;50.832;10.950;2023-05-16T14:46:47;3.80;;;0.70;;
76801;SDS011;66403;50.832;10.950;2023-05-16T14:51:47;2.87;;;0.80;;
76801;SDS011;66403;50.832;10.950;2023-05-16T14:56:50;2.95;;;0.77;;
76801;SDS011;66403;50.832;10.950;2023-05-16T15:01:51;2.37;;;0.83;;
76801;SDS011;66403;50.832;10.950;2023-05-16T15:06:51;4.30;;;1.30;;
76801;SDS011;66403;50.832;10.950;2023-05-16T15:11:52;2.15;;;0.75;;
76801;SDS011;66403;50.832;10.950;2023-05-16T15:16:52;2.07;;;0.70;;
76801;SDS011;66403;50.832;10.950;2023-05-16T15:21:53;3.53;;;0.90;;
76801;SDS011;66403;50.832;10.950;2023-05-16T15:26:53;3.13;;;1.10;;
76801;SDS011;66403;50.832;10.950;2023-05-16T15:31:54;1.95;;;1.10;;
76801;SDS011;66403;50.832;10.950;2023-05-16T15:36:54;3.93;;;0.83;;
76801;SDS011;66403;50.832;10.950;2023-05-16T15:41:55;2.43;;;1.07;;
76801;SDS011;66403;50.832;10.950;2023-05-16T15:46:55;2.13;;;0.73;;
76801;SDS011;66403;50.832;10.950;2023-05-16T15:51:56;3.20;;;0.70;;
76801;SDS011;66403;50.832;10.950;2023-05-16T15:56:56;3.97;;;2.60;;
76801;SDS011;66403;50.832;10.950;2023-05-16T16:01:57;1.77;;;0.93;;
76801;SDS011;66403;50.832;10.950;2023-05-16T16:06:57;4.13;;;1.92;;
76801;SDS011;66403;50.832;10.950;2023-05-16T16:11:58;6.20;;;1.07;;
76801;SDS011;66403;50.832;10.950;2023-05-16T16:16:58;2.63;;;0.77;;
76801;SDS011;66403;50.832;10.950;2023-05-16T16:21:58;5.80;;;1.00;;
76801;SDS011;66403;50.832;10.950;2023-05-16T16:26:59;2.13;;;0.80;;
76801;SDS011;66403;50.832;10.950;2023-05-16T16:32:00;3.55;;;0.80;;
76801;SDS011;66403;50.832;10.950;2023-05-16T16:37:01;0.80;;;0.63;;
76801;SDS011;66403;50.832;10.950;2023-05-16T16:42:01;4.07;;;1.10;;
76801;SDS011;66403;50.832;10.950;2023-05-16T16:47:01;4.90;;;1.10;;
76801;SDS011;66403;50.832;10.950;2023-05-16T16:52:02;7.40;;;1.60;;
76801;SDS011;66403;50.832;10.950;2023-05-16T16:57:02;2.55;;;1.08;;
76801;SDS011;66403;50.832;10.950;2023-05-16T17:02:03;4.30;;;0.80;;
76801;SDS011;66403;50.832;10.950;2023-05-16T17:07:04;3.38;;;1.63;;
76801;SDS011;66403;50.832;10.950;2023-05-16T17:12:06;2.13;;;1.27;;
76801;SDS011;66403;50.832;10.950;2023-05-16T17:17:14;5.03;;;0.77;;
76801;SDS011;66403;50.832;10.950;2023-05-16T17:22:15;9.30;;;5.28;;
76801;SDS011;66403;50.832;10.950;2023-05-16T17:27:15;3.67;;;1.13;;
76801;SDS011;66403;50.832;10.950;2023-05-16T17:32:20;1.75;;;0.60;;
76801;SDS011;66403;50.832;10.950;2023-05-16T17:37:20;5.88;;;1.42;;
76801;SDS011;66403;50.832;10.950;2023-05-16T17:42:21;0.47;;;0.32;;
76801;SDS011;66403;50.832;10.950;2023-05-16T17:47:22;8.00;;;2.65;;
76801;SDS011;66403;50.832;10.950;2023-05-16T17:52:23;0.95;;;0.52;;
76801;SDS011;66403;50.832;10.950;2023-05-16T17:57:24;2.72;;;0.73;;
76801;SDS011;66403;50.832;10.950;2023-05-16T18:02:26;1.45;;;0.80;;
76801;SDS011;66403;50.832;10.950;2023-05-16T18:07:26;54.67;;;22.98;;
76801;SDS011;66403;50.832;10.950;2023-05-16T18:12:27;2.28;;;1.00;;
76801;SDS011;66403;50.832;10.950;2023-05-16T18:17:27;2.03;;;0.68;;
76801;SDS011;66403;50.832;10.950;2023-05-16T18:22:28;2.10;;;0.90;;
76801;SDS011;66403;50.832;10.950;2023-05-16T18:27:28;1.65;;;0.85;;
76801;SDS011;66403;50.832;10.950;2023-05-16T18:32:29;5.18;;;0.93;;
76801;SDS011;66403;50.832;10.950;2023-05-16T18:37:30;5.43;;;0.85;;
76801;SDS011;66403;50.832;10.950;2023-05-16T18:42:30;1.52;;;0.82;;
76801;SDS011;66403;50.832;10.950;2023-05-16T18:47:31;2.30;;;0.60;;
76801;SDS011;66403;50.832;10.950;2023-05-16T18:52:32;1.48;;;0.70;;
76801;SDS011;66403;50.832;10.950;2023-05-16T18:57:34;3.50;;;1.70;;
76801;SDS011;66403;50.832;10.950;2023-05-16T19:02:34;7.75;;;1.95;;
76801;SDS011;66403;50.832;10.950;2023-05-16T19:07:35;3.15;;;1.10;;
76801;SDS011;66403;50.832;10.950;2023-05-16T19:12:36;1.13;;;0.90;;
76801;SDS011;66403;50.832;10.950;2023-05-16T19:17:38;1.83;;;1.50;;
76801;SDS011;66403;50.832;10.950;2023-05-16T19:22:40;4.78;;;1.40;;
76801;SDS011;66403;50.832;10.950;2023-05-16T19:27:41;3.60;;;1.00;;
76801;SDS011;66403;50.832;10.950;2023-05-16T19:32:41;10.30;;;7.28;;
76801;SDS011;66403;50.832;10.950;2023-05-16T19:37:42;6.20;;;3.88;;
76801;SDS011;66403;50.832;10.950;2023-05-16T19:42:42;1.75;;;1.17;;
76801;SDS011;66403;50.832;10.950;2023-05-16T19:47:43;2.95;;;1.20;;
76801;SDS011;66403;50.832;10.950;2023-05-16T19:52:43;3.35;;;0.93;;
76801;SDS011;66403;50.832;10.950;2023-05-16T19:57:44;7.18;;;1.25;;
76801;SDS011;66403;50.832;10.950;2023-05-16T20:02:44;2.72;;;1.15;;
76801;SDS011;66403;50.832;10.950;2023-05-16T20:07:46;3.38;;;1.27;;
76801;SDS011;66403;50.832;10.950;2023-05-16T20:12:46;2.65;;;1.10;;
76801;SDS011;66403;50.832;10.950;2023-05-16T20:17:47;4.28;;;1.10;;
76801;SDS011;66403;50.832;10.950;2023-05-16T20:22:48;0.75;;;0.60;;
76801;SDS011;66403;50.832;10.950;2023-05-16T20:27:48;5.82;;;1.48;;
76801;SDS011;66403;50.832;10.950;2023-05-16T20:32:49;1.25;;;0.90;;
76801;SDS011;66403;50.832;10.950;2023-05-16T20:37:49;3.30;;;0.63;;
76801;SDS011;66403;50.832;10.950;2023-05-16T20:42:50;1.27;;;0.77;;
76801;SDS011;66403;50.832;10.950;2023-05-16T20:47:51;4.78;;;0.90;;
76801;SDS011;66403;50.832;10.950;2023-05-16T20:52:51;2.17;;;0.82;;
76801;SDS011;66403;50.832;10.950;2023-05-16T20:57:52;1.75;;;0.93;;
76801;SDS011;66403;50.832;10.950;2023-05-16T21:02:52;2.53;;;1.10;;
76801;SDS011;66403;50.832;10.950;2023-05-16T21:07:53;1.63;;;1.20;;
76801;SDS011;66403;50.832;10.950;2023-05-16T21:12:53;1.33;;;0.80;;
76801;SDS011;66403;50.832;10.950;2023-05-16T21:17:54;2.15;;;1.17;;
76801;SDS011;66403;50.832;10.950;2023-05-16T21:22:54;1.60;;;0.88;;
76801;SDS011;66403;50.832;10.950;2023-05-16T21:27:55;3.95;;;0.80;;
76801;SDS011;66403;50.832;10.950;2023-05-16T21:32:55;3.03;;;0.70;;
76801;SDS011;66403;50.832;10.950;2023-05-16T21:37:56;3.38;;;1.02;;
76801;SDS011;66403;50.832;10.950;2023-05-16T21:42:57;2.78;;;0.90;;
76801;SDS011;66403;50.832;10.950;2023-05-16T21:47:57;1.38;;;1.00;;
76801;SDS011;66403;50.832;10.950;2023-05-16T21:52:58;3.03;;;0.77;;
76801;SDS011;66403;50.832;10.950;2023-05-16T21:57:58;3.08;;;0.80;;
76801;SDS011;66403;50.832;10.950;2023-05-16T22:02:58;1.80;;;1.10;;
76801;SDS011;66403;50.832;10.950;2023-05-16T22:07:59;1.70;;;1.38;;
76801;SDS011;66403;50.832;10.950;2023-05-16T22:13:00;4.63;;;1.00;;
76801;SDS011;66403;50.832;10.950;2023-05-16T22:18:00;2.55;;;1.48;;
76801;SDS011;66403;50.832;10.950;2023-05-16T22:23:01;3.90;;;0.75;;
76801;SDS011;66403;50.832;10.950;2023-05-16T22:28:01;2.88;;;0.75;;
76801;SDS011;66403;50.832;10.950;2023-05-16T22:33:01;5.35;;;1.40;;
76801;SDS011;66403;50.832;10.950;2023-05-16T22:38:02;3.60;;;1.00;;
76801;SDS011;66403;50.832;10.950;2023-05-16T22:43:03;4.63;;;0.90;;
76801;SDS011;66403;50.832;10.950;2023-05-16T22:48:03;2.35;;;1.17;;
76801;SDS011;66403;50.832;10.950;2023-05-16T22:53:04;1.65;;;0.93;;
76801;SDS011;66403;50.832;10.950;2023-05-16T22:58:04;2.47;;;0.95;;
76801;SDS011;66403;50.832;10.950;2023-05-16T23:03:05;2.38;;;1.30;;
76801;SDS011;66403;50.832;10.950;2023-05-16T23:08:05;2.60;;;0.75;;
76801;SDS011;66403;50.832;10.950;2023-05-16T23:13:06;1.60;;;0.88;;
76801;SDS011;66403;50.832;10.950;2023-05-16T23:18:06;1.17;;;0.75;;
76801;SDS011;66403;50.832;10.950;2023-05-16T23:23:07;1.42;;;1.08;;
76801;SDS011;66403;50.832;10.950;2023-05-16T23:28:07;4.03;;;1.23;;
76801;SDS011;66403;50.832;10.950;2023-05-16T23:33:08;2.45;;;0.63;;
76801;SDS011;66403;50.832;10.950;2023-05-16T23:38:08;3.47;;;1.02;;
76801;SDS011;66403;50.832;10.950;2023-05-16T23:43:09;1.20;;;1.10;;
76801;SDS011;66403;50.832;10.950;2023-05-16T23:48:09;2.13;;;0.85;;
76801;SDS011;66403;50.832;10.950;2023-05-16T23:53:10;2.03;;;1.27;;
76801;SDS011;66403;50.832;10.950;2023-05-16T23:58:10;2.50;;;1.20;;
